Airport ID:KVUF
Update Time (UTC):26/09/2021 06:25
Wind Speed (Knots):2
Wind Direction (Magnetic):190
Temperature (°C):21
Dew Point (°C):5
Humidity (%):36
Altimeter (inHg):30.09
Density Altitude (Feet):2800
Visibility:10+
Clouds (Hundreds of feet):CLR
Present Weather:
METAR:METAR KVUF 260625Z AUTO 00000KT 10SM CLR 21/05 A3009 RMK A01

The data displayed is for advisory purposes only and is not to be used for flight planning or operations.